Track Клочев Александр

Time Latitude Longitude Accuracy (66% radius in meters) Altitude (meters) Speed (km/hour) Bearing (degrees) Battery (%) GPS flag
09:02:26 60.404239 30.333768 0 0 0 0 1 delete
09:02:25 60.404248 30.333754 0 0 0 0 1 delete
09:02:24 60.404256 30.333744 0 0 0 0 1 delete
09:02:23 60.404270 30.333728 0 0 0 0 1 delete
09:02:22 60.404291 30.333710 0 0 0 0 1 delete
09:02:21 60.404321 30.333682 0 0 0 0 1 delete
09:02:20 60.404362 30.333655 0 0 0 0 1 delete
09:02:19 60.404403 30.333640 0 0 0 0 1 delete
09:02:18 60.404443 30.333625 0 0 0 0 1 delete
09:02:17 60.404476 30.333610 0 0 0 0 1 delete
09:02:16 60.404510 30.333584 0 0 0 0 1 delete
09:02:15 60.404547 30.333549 0 0 0 0 1 delete
09:02:14 60.404582 30.333501 0 0 0 0 1 delete
09:02:13 60.404614 30.333448 0 0 0 0 1 delete
09:02:12 60.404644 30.333396 0 0 0 0 1 delete
09:02:11 60.404671 30.333352 0 0 0 0 1 delete
09:02:10 60.404701 30.333316 0 0 0 0 1 delete
09:02:09 60.404726 30.333293 0 0 0 0 1 delete
09:02:08 60.404751 30.333276 0 0 0 0 1 delete
09:02:07 60.404770 30.333264 0 0 0 0 1 delete
09:02:06 60.404785 30.333255 0 0 0 0 1 delete
09:02:05 60.404803 30.333244 0 0 0 0 1 delete
09:02:04 60.404830 30.333220 0 0 0 0 1 delete
09:02:03 60.404862 30.333187 0 0 0 0 1 delete
09:02:02 60.404896 30.333146 0 0 0 0 1 delete
09:02:01 60.404926 30.333100 0 0 0 0 1 delete
09:02:00 60.404958 30.333046 0 0 0 0 1 delete
09:01:59 60.404987 30.332985 0 0 0 0 1 delete
09:01:58 60.405015 30.332929 0 0 0 0 1 delete
09:01:57 60.405039 30.332871 0 0 0 0 1 delete
09:01:56 60.405064 30.332815 0 0 0 0 1 delete
09:01:55 60.405093 30.332757 0 0 0 0 1 delete
09:01:54 60.405121 30.332702 0 0 0 0 1 delete
09:01:53 60.405143 30.332647 0 0 0 0 1 delete
09:01:52 60.405156 30.332587 0 0 0 0 1 delete
09:01:51 60.405172 30.332525 0 0 0 0 1 delete
09:01:50 60.405193 30.332463 0 0 0 0 1 delete
09:01:49 60.405218 30.332410 0 0 0 0 1 delete
09:01:48 60.405245 30.332367 0 0 0 0 1 delete
09:01:47 60.405273 30.332338 0 0 0 0 1 delete
09:01:46 60.405300 30.332320 0 0 0 0 1 delete
09:01:45 60.405329 30.332308 0 0 0 0 1 delete
09:01:44 60.405357 30.332303 0 0 0 0 1 delete
09:01:43 60.405385 30.332302 0 0 0 0 1 delete
09:01:42 60.405417 30.332304 0 0 0 0 1 delete
09:01:41 60.405444 30.332308 0 0 0 0 1 delete
09:01:40 60.405471 30.332314 0 0 0 0 1 delete
09:01:39 60.405492 30.332324 0 0 0 0 1 delete
09:01:38 60.405513 30.332341 0 0 0 0 1 delete
09:01:37 60.405535 30.332371 0 0 0 0 1 delete